Latest Weather Observations for Badgingarra

IDW60801

Issued at 10:05 pm WST Wednesday 26 November 2014 (issued every 30 minutes, with the page automatically refreshed every 10 minutes)

About weather observations | Map of weather stations | Latest weather observations for WA | Other Formats
Station Details ID: 009037 Name: BADGINGARRA RESEARCH STN Lat: -30.34 Lon: 115.54 Height: 275.0 m
Data from the previous 72 hours. | See also: Recent months at Badgingarra
Date/Time
WST
Temp
°C
App
Temp
°C
Dew
Point
Rel
Hum
%
Delta-T
°C
Wind Press
QNH
hPa
Press
MSL
hPa
Rain
since 9 am
mm
Dir
 
Spd
km/h
Gust
km/h
Spd
kts
Gust
kts
26/10:00pm 19.7 20.0 16.9 84 1.7 E 11 17 6 9 - - 20.6
26/09:30pm 19.8 19.3 16.8 83 1.8 E 15 19 8 10 - - 20.6
26/09:00pm 20.3 20.0 17.3 83 1.9 E 15 19 8 10 - - 20.6
26/08:30pm 20.6 20.2 17.2 81 2.1 E 15 19 8 10 - - 20.4
26/08:00pm 19.7 20.0 17.8 89 1.2 ENE 13 19 7 10 - - 20.4
26/07:30pm 20.0 20.6 17.8 87 1.4 E 11 15 6 8 - - 20.4
26/07:00pm 19.7 21.0 17.5 87 1.4 NE 7 11 4 6 - - 20.4
26/06:30pm 19.5 19.9 17.3 87 1.4 SE 11 13 6 7 - - 20.4
26/06:00pm 19.4 18.8 17.5 89 1.2 SE 17 20 9 11 - - 20.4
26/05:30pm 19.8 21.4 17.9 89 1.2 E 6 11 3 6 - - 20.4
26/05:00pm 19.2 20.0 17.2 88 1.2 W 9 15 5 8 - - 20.4
26/04:30pm 19.6 18.4 17.0 85 1.6 NNW 19 24 10 13 - - 18.2
26/04:00pm 19.4 20.4 16.4 83 1.8 NE 6 17 3 9 - - 17.6
26/03:30pm 19.9 18.4 16.3 80 2.2 ESE 19 24 10 13 - - 17.6
26/03:00pm 18.4 15.8 15.8 85 1.6 SW 24 37 13 20 - - 12.0
26/02:30pm 20.4 19.6 16.2 77 2.6 SSW 15 20 8 11 - - 4.4
26/02:00pm 20.1 15.1 15.1 73 3.0 NE 35 56 19 30 - - 2.6
26/01:59pm 20.2 14.8 15.0 72 3.1 NE 37 56 20 30 - - 2.6
26/01:57pm 20.9 15.2 15.2 70 3.4 NE 39 56 21 30 - - 2.4
26/01:45pm 20.9 16.4 15.4 71 3.3 N 33 46 18 25 - - 1.0
26/01:30pm 25.9 20.7 14.4 49 6.9 N 35 54 19 29 - - 0.2
26/01:29pm 26.3 20.9 13.8 46 7.5 N 35 54 19 29 - - 0.2
26/01:18pm 30.5 24.8 12.9 34 10.6 N 35 44 19 24 - - 0.0
26/01:00pm 33.8 31.3 11.0 25 13.5 NNE 15 22 8 12 - - 0.0
26/12:30pm 33.7 27.6 10.3 24 13.7 N 33 50 18 27 - - 0.0
26/12:09pm 36.4 30.3 10.6 21 15.3 NNE 33 52 18 28 - - 0.0
26/12:00pm 36.4 31.3 10.6 21 15.3 N 28 46 15 25 - - 0.0
26/11:30am 35.3 29.0 11.0 23 14.4 NNE 35 50 19 27 - - 0.0
26/11:00am 35.9 30.3 11.5 23 14.6 NNE 32 52 17 28 - - 0.0
26/10:59am 35.8 30.2 11.4 23 14.6 NNE 32 52 17 28 - - 0.0
26/10:30am 33.8 27.9 11.0 25 13.5 NNE 33 48 18 26 - - 0.0
26/10:00am 32.5 26.6 11.1 27 12.6 NNE 33 48 18 26 - - 0.0
26/09:30am 32.5 25.3 10.5 26 12.8 NNE 39 52 21 28 - - 0.0
26/09:14am 30.6 24.4 10.0 28 11.8 NNE 33 52 18 28 - - 0.0
26/09:00am 31.6 24.7 10.3 27 12.3 NNE 37 54 20 29 - - -
26/08:30am 30.9 24.6 9.7 27 12.1 NE 33 46 18 25 - - -
26/08:00am 29.3 22.7 7.8 26 11.8 ENE 32 41 17 22 - - -
26/07:30am 28.1 21.2 7.4 27 11.2 ENE 33 44 18 24 - - -
26/07:00am 26.9 20.7 6.3 27 10.9 ENE 28 35 15 19 - - -
26/06:30am 24.5 18.5 5.3 29 9.8 ENE 26 33 14 18 - - -
26/06:00am 23.8 19.2 5.7 31 9.3 E 19 28 10 15 - - -
26/05:30am 23.2 19.4 5.6 32 9.0 E 15 22 8 12 - - -
26/05:00am 23.1 19.2 5.5 32 9.0 E 15 20 8 11 - - -
26/04:30am 22.4 17.9 4.0 30 9.1 ESE 17 22 9 12 - - -
26/04:00am 22.7 18.3 4.7 31 9.0 ESE 17 24 9 13 - - -
26/03:30am 22.7 18.8 7.3 37 8.1 ESE 17 20 9 11 - - -
26/03:00am 24.0 20.5 8.8 38 8.3 E 17 22 9 12 - - -
26/02:30am 25.2 21.3 8.7 35 9.0 E 19 24 10 13 - - -
26/02:00am 24.8 21.4 9.1 37 8.6 E 17 20 9 11 - - -
26/01:30am 24.7 21.6 9.0 37 8.6 E 15 19 8 10 - - -
26/01:00am 24.9 21.6 9.6 38 8.5 ENE 17 20 9 11 - - -
26/12:30am 25.1 21.8 9.4 37 8.7 E 17 22 9 12 - - -
26/12:00am 24.5 22.8 10.0 40 8.1 E 9 13 5 7 - - -
 
Date/Time
WST
Temp
°C
App
Temp
°C
Dew
Point
Rel
Hum
%
Delta-T
°C
Wind Press
QNH
hPa
Press
MSL
hPa
Rain
since 9 am
mm
Dir
 
Spd
km/h
Gust
km/h
Spd
kts
Gust
kts
25/11:30pm 25.3 22.3 10.7 40 8.3 E 17 22 9 12 - - -
25/11:00pm 25.7 22.3 10.7 39 8.5 E 19 26 10 14 - - -
25/10:30pm 26.0 21.8 11.0 39 8.6 E 24 32 13 17 - - -
25/10:00pm 25.7 22.9 11.5 41 8.2 ENE 17 22 9 12 - - -
25/09:30pm 26.6 23.8 11.5 39 8.7 NE 17 22 9 12 - - -
25/04:00pm 36.6 31.0 3.7 13 17.6 E 22 32 12 17 - - 0.0
25/03:30pm 36.5 31.3 3.7 13 17.5 ESE 20 30 11 16 - - 0.0
25/03:00pm 37.0 31.5 4.0 13 17.8 ESE 22 37 12 20 - - 0.0
25/02:30pm 36.1 31.4 3.3 13 17.4 E 17 28 9 15 - - 0.0
25/02:00pm 36.3 30.9 4.6 14 17.2 ESE 22 32 12 17 - - 0.0
25/01:30pm 35.9 30.8 3.2 13 17.3 ESE 19 33 10 18 - - 0.0
25/01:00pm 35.6 30.1 4.0 14 16.9 E 22 32 12 17 - - 0.0
25/12:30pm 34.7 29.8 4.3 15 16.2 E 19 33 10 18 - - 0.0
25/12:00pm 34.3 28.4 4.0 15 16.1 E 24 30 13 16 - - 0.0
25/11:30am 34.0 28.6 4.6 16 15.7 ESE 22 37 12 20 - - 0.0
25/11:00am 32.5 26.3 4.3 17 14.9 E 26 39 14 21 - - 0.0
25/10:30am 31.5 25.3 4.3 18 14.3 E 26 37 14 20 - - 0.0
25/10:00am 29.4 22.5 4.8 21 12.9 E 30 41 16 22 - - 0.0
25/09:30am 28.2 21.3 4.5 22 12.2 E 30 41 16 22 - - 0.0
25/09:00am 26.0 18.2 5.0 26 10.8 E 35 44 19 24 - - 0.0
25/08:30am 24.7 17.3 5.0 28 10.1 E 33 46 18 25 - - 0.0
25/08:00am 22.9 15.5 4.9 31 9.1 E 33 48 18 26 - - 0.0
25/07:30am 20.9 13.6 4.5 34 8.1 E 32 44 17 24 - - 0.0
25/07:00am 19.1 12.2 4.8 39 7.0 E 30 41 16 22 - - 0.0
25/06:30am 17.6 11.2 5.2 44 6.1 ESE 28 41 15 22 - - 0.0
25/06:00am 16.7 10.6 5.0 46 5.7 SE 26 39 14 21 - - 0.0
25/05:30am 16.2 9.7 4.6 46 5.5 SE 28 39 15 21 - - 0.0
25/05:00am 16.6 9.9 3.7 42 6.1 ESE 28 39 15 21 - - 0.0
25/04:30am 17.3 10.4 2.5 37 6.8 ESE 28 39 15 21 - - 0.0
25/04:00am 17.5 10.9 1.9 35 7.1 SE 26 39 14 21 - - 0.0
25/03:30am 17.8 11.1 1.7 34 7.3 SE 26 39 14 21 - - 0.0
25/03:00am 18.3 11.7 1.8 33 7.6 SE 26 39 14 21 - - 0.0
25/02:34am 19.2 12.2 2.1 32 7.9 ESE 28 46 15 25 - - 0.0
25/02:30am 18.6 11.2 1.6 32 7.8 SE 30 44 16 24 - - 0.0
25/02:00am 19.2 12.2 1.7 31 8.1 SE 28 39 15 21 - - 0.0
25/01:30am 19.6 13.0 2.0 31 8.2 SE 26 35 14 19 - - 0.0
25/01:00am 19.1 12.3 3.3 35 7.5 SE 28 35 15 19 - - 0.0
25/12:30am 19.0 13.3 4.7 39 7.0 SE 24 32 13 17 - - 0.0
25/12:00am 18.2 13.1 5.8 44 6.2 SE 22 32 12 17 - - 0.0
 
Date/Time
WST
Temp
°C
App
Temp
°C
Dew
Point
Rel
Hum
%
Delta-T
°C
Wind Press
QNH
hPa
Press
MSL
hPa
Rain
since 9 am
mm
Dir
 
Spd
km/h
Gust
km/h
Spd
kts
Gust
kts
24/11:30pm 15.9 11.9 8.4 61 3.9 SSE 19 22 10 12 - - 0.0
24/11:00pm 15.4 11.3 10.0 70 2.9 SSE 22 26 12 14 - - 0.0
24/10:30pm 15.4 10.6 10.2 71 2.8 SSE 26 32 14 17 - - 0.0
24/10:00pm 15.4 10.9 10.2 71 2.8 S 24 30 13 16 - - 0.0
24/09:30pm 16.2 10.6 10.3 68 3.2 S 30 33 16 18 - - 0.0
24/09:00pm 16.7 11.6 10.5 67 3.3 S 28 37 15 20 - - 0.0
24/08:30pm 17.7 12.7 11.0 65 3.7 S 28 37 15 20 - - 0.0
24/08:00pm 18.4 12.9 10.5 60 4.3 S 30 39 16 21 - - 0.0
24/07:30pm 19.4 14.3 10.7 57 4.8 S 28 35 15 19 - - 0.0
24/07:00pm 20.9 15.4 10.4 51 5.8 S 30 39 16 21 - - 0.0
24/06:30pm 23.1 16.9 9.5 42 7.5 S 32 39 17 21 - - 0.0
24/06:00pm 24.5 18.4 9.6 39 8.2 S 32 39 17 21 - - 0.0
24/05:30pm 26.1 19.4 9.5 35 9.2 SSW 35 43 19 23 - - 0.0
24/05:00pm 29.8 24.9 2.1 17 13.9 SE 17 24 9 13 - - 0.0
24/04:30pm 29.9 25.3 1.4 16 14.1 SE 15 22 8 12 - - 0.0
24/04:00pm 29.6 24.3 2.0 17 13.8 SE 19 30 10 16 - - 0.0
24/03:30pm 29.5 25.7 1.9 17 13.7 ENE 11 17 6 9 - - 0.0
24/03:00pm 29.8 25.4 2.9 18 13.7 SE 15 26 8 14 - - 0.0
24/02:30pm 29.2 24.5 3.2 19 13.2 SE 17 24 9 13 - - 0.0
24/02:00pm 29.2 25.4 4.0 20 13.0 ESE 13 26 7 14 - - 0.0
24/01:30pm 29.0 24.6 4.5 21 12.7 ESE 17 30 9 16 - - 0.0
24/01:00pm 27.7 24.4 4.7 23 11.9 SE 11 26 6 14 - - 0.0
24/12:30pm 27.7 23.4 5.3 24 11.7 E 17 30 9 16 - - 0.0
24/12:00pm 27.2 22.7 6.0 26 11.2 SE 19 30 10 16 - - 0.0
24/11:30am 26.1 20.9 5.7 27 10.6 E 22 37 12 20 - - 0.0
24/11:00am 25.2 19.3 5.9 29 10.0 ESE 26 37 14 20 - - 0.0
24/10:30am 24.8 19.0 6.1 30 9.7 E 26 35 14 19 - - 0.0
24/10:00am 23.4 16.7 5.8 32 9.0 E 30 41 16 22 - - 0.0
24/09:30am 22.2 15.6 6.0 35 8.3 E 30 37 16 20 - - 0.0
24/09:00am 20.9 14.1 6.8 40 7.3 E 32 41 17 22 - - 0.0
24/08:30am 19.0 12.5 6.5 44 6.3 E 30 41 16 22 - - 0.0
24/08:00am 18.2 11.8 7.0 48 5.7 E 30 41 16 22 - - 0.0
24/07:30am 16.4 9.4 6.8 53 4.8 ESE 33 46 18 25 - - 0.0
24/07:25am 16.3 10.3 7.0 54 4.7 ESE 28 46 15 25 - - 0.0
24/07:00am 15.1 8.6 6.7 57 4.2 ESE 30 44 16 24 - - 0.0
24/06:30am 14.1 8.0 6.5 60 3.7 SE 28 39 15 21 - - 0.0
24/06:00am 12.7 6.4 5.8 63 3.3 SE 28 39 15 21 - - 0.0
24/05:30am 12.0 5.3 5.6 65 3.0 SE 30 39 16 21 - - 0.0
24/05:00am 11.7 6.2 6.0 68 2.7 SE 24 35 13 19 - - 0.0
24/04:30am 11.2 5.5 6.9 75 2.1 SSE 26 33 14 18 - - 0.0
24/04:00am 10.7 6.0 7.6 81 1.5 SSE 22 28 12 15 - - 0.0
24/03:30am 10.5 6.2 7.9 84 1.3 SSE 20 26 11 14 - - 0.0
24/03:00am 11.0 6.8 8.4 84 1.3 SSE 20 24 11 13 - - 0.0
24/02:30am 11.5 6.7 8.7 83 1.4 S 24 28 13 15 - - 0.0
24/02:00am 11.9 6.9 9.5 85 1.2 S 26 33 14 18 - - 0.0
24/01:30am 11.9 7.3 9.8 87 1.1 S 24 30 13 16 - - 0.0
24/01:00am 11.8 7.2 9.5 86 1.2 S 24 28 13 15 - - 0.0
24/12:30am 12.1 7.0 9.3 83 1.4 S 26 33 14 18 - - 0.0
24/12:00am 12.0 7.2 8.8 81 1.6 S 24 30 13 16 - - 0.0
 
Date/Time
WST
Temp
°C
App
Temp
°C
Dew
Point
Rel
Hum
%
Delta-T
°C
Wind Press
QNH
hPa
Press
MSL
hPa
Rain
since 9 am
mm
Dir
 
Spd
km/h
Gust
km/h
Spd
kts
Gust
kts
23/11:30pm 11.8 6.5 8.6 81 1.6 S 26 32 14 17 - - 0.0
23/11:00pm 12.1 7.2 8.6 79 1.8 S 24 30 13 16 - - 0.0
23/10:30pm 12.5 7.6 8.6 77 2.0 S 24 30 13 16 - - 0.0

Other Formats:

Comma delimited format used in spreadsheet applications
http://www.bom.gov.au/fwo/IDW60801/IDW60801.94603.axf

JavaScript Object Notation format (JSON) in row-major order
http://www.bom.gov.au/fwo/IDW60801/IDW60801.94603.json